sensor_id;sensor_type;location;lat;lon;timestamp;temperature;humidity
27226;DHT22;14732;51.074;3.788;2022-07-29T00:02:04;19.80;99.90
27226;DHT22;14732;51.074;3.788;2022-07-29T00:04:30;19.80;99.90
27226;DHT22;14732;51.074;3.788;2022-07-29T00:06:55;19.70;99.90
27226;DHT22;14732;51.074;3.788;2022-07-29T00:09:21;19.70;99.90
27226;DHT22;14732;51.074;3.788;2022-07-29T00:11:47;19.50;99.90
27226;DHT22;14732;51.074;3.788;2022-07-29T00:14:13;19.60;99.90
27226;DHT22;14732;51.074;3.788;2022-07-29T00:16:38;19.70;99.90
27226;DHT22;14732;51.074;3.788;2022-07-29T00:19:04;19.80;99.90
27226;DHT22;14732;51.074;3.788;2022-07-29T00:21:30;19.80;99.90
27226;DHT22;14732;51.074;3.788;2022-07-29T00:23:55;19.80;99.90
27226;DHT22;14732;51.074;3.788;2022-07-29T00:26:21;19.80;99.90
27226;DHT22;14732;51.074;3.788;2022-07-29T00:28:47;19.80;99.90
27226;DHT22;14732;51.074;3.788;2022-07-29T00:31:12;19.90;99.90
27226;DHT22;14732;51.074;3.788;2022-07-29T00:33:38;19.90;99.90
27226;DHT22;14732;51.074;3.788;2022-07-29T00:36:04;19.90;99.90
27226;DHT22;14732;51.074;3.788;2022-07-29T00:38:30;20.00;99.90
27226;DHT22;14732;51.074;3.788;2022-07-29T00:40:55;19.90;99.90
27226;DHT22;14732;51.074;3.788;2022-07-29T00:43:21;19.80;99.90
27226;DHT22;14732;51.074;3.788;2022-07-29T00:45:47;19.70;99.90
27226;DHT22;14732;51.074;3.788;2022-07-29T00:48:12;19.50;99.90
27226;DHT22;14732;51.074;3.788;2022-07-29T00:50:38;19.50;99.90
27226;DHT22;14732;51.074;3.788;2022-07-29T00:53:06;19.40;99.90
27226;DHT22;14732;51.074;3.788;2022-07-29T00:55:32;19.50;99.90
27226;DHT22;14732;51.074;3.788;2022-07-29T00:57:59;19.50;99.90
27226;DHT22;14732;51.074;3.788;2022-07-29T01:00:26;19.40;99.90
27226;DHT22;14732;51.074;3.788;2022-07-29T01:02:52;19.40;99.90
27226;DHT22;14732;51.074;3.788;2022-07-29T01:05:20;19.10;99.90
27226;DHT22;14732;51.074;3.788;2022-07-29T01:07:48;18.90;99.90
27226;DHT22;14732;51.074;3.788;2022-07-29T01:10:15;18.80;99.90
27226;DHT22;14732;51.074;3.788;2022-07-29T01:12:43;18.70;99.90
27226;DHT22;14732;51.074;3.788;2022-07-29T01:15:10;18.50;99.90
27226;DHT22;14732;51.074;3.788;2022-07-29T01:17:52;18.60;99.90
27226;DHT22;14732;51.074;3.788;2022-07-29T01:20:44;18.80;99.90
27226;DHT22;14732;51.074;3.788;2022-07-29T01:23:44;18.80;99.90
27226;DHT22;14732;51.074;3.788;2022-07-29T01:26:28;18.70;99.90
27226;DHT22;14732;51.074;3.788;2022-07-29T01:34:04;18.90;99.90
27226;DHT22;14732;51.074;3.788;2022-07-29T01:36:32;18.40;99.90
27226;DHT22;14732;51.074;3.788;2022-07-29T01:39:23;18.20;99.90
27226;DHT22;14732;51.074;3.788;2022-07-29T01:42:15;18.40;99.90
27226;DHT22;14732;51.074;3.788;2022-07-29T01:44:50;18.50;99.90
27226;DHT22;14732;51.074;3.788;2022-07-29T01:47:20;18.60;99.90
27226;DHT22;14732;51.074;3.788;2022-07-29T01:49:51;18.70;99.90
27226;DHT22;14732;51.074;3.788;2022-07-29T01:52:25;18.60;99.90
27226;DHT22;14732;51.074;3.788;2022-07-29T01:54:59;18.50;99.90
27226;DHT22;14732;51.074;3.788;2022-07-29T01:57:29;18.50;99.90
27226;DHT22;14732;51.074;3.788;2022-07-29T01:59:57;18.40;99.90
27226;DHT22;14732;51.074;3.788;2022-07-29T02:02:24;18.10;99.90
27226;DHT22;14732;51.074;3.788;2022-07-29T02:04:52;18.10;99.90
27226;DHT22;14732;51.074;3.788;2022-07-29T02:07:21;18.20;99.90
27226;DHT22;14732;51.074;3.788;2022-07-29T02:09:48;18.20;99.90
27226;DHT22;14732;51.074;3.788;2022-07-29T02:12:16;18.20;99.90
27226;DHT22;14732;51.074;3.788;2022-07-29T02:14:46;18.20;99.90
27226;DHT22;14732;51.074;3.788;2022-07-29T02:17:12;17.90;99.90
27226;DHT22;14732;51.074;3.788;2022-07-29T02:19:39;18.00;99.90
27226;DHT22;14732;51.074;3.788;2022-07-29T02:22:06;17.90;99.90
27226;DHT22;14732;51.074;3.788;2022-07-29T02:24:34;17.50;99.90
27226;DHT22;14732;51.074;3.788;2022-07-29T02:27:02;17.40;99.90
27226;DHT22;14732;51.074;3.788;2022-07-29T02:29:30;17.50;99.90
27226;DHT22;14732;51.074;3.788;2022-07-29T02:31:59;17.70;99.90
27226;DHT22;14732;51.074;3.788;2022-07-29T02:34:26;17.60;99.90
27226;DHT22;14732;51.074;3.788;2022-07-29T02:36:54;17.50;99.90
27226;DHT22;14732;51.074;3.788;2022-07-29T02:39:21;17.60;99.90
27226;DHT22;14732;51.074;3.788;2022-07-29T02:41:50;17.70;99.90
27226;DHT22;14732;51.074;3.788;2022-07-29T02:44:19;17.60;99.90
27226;DHT22;14732;51.074;3.788;2022-07-29T02:47:04;17.70;99.90
27226;DHT22;14732;51.074;3.788;2022-07-29T02:50:23;17.70;99.90
27226;DHT22;14732;51.074;3.788;2022-07-29T02:52:27;17.50;99.90
27226;DHT22;14732;51.074;3.788;2022-07-29T02:55:15;17.30;99.90
27226;DHT22;14732;51.074;3.788;2022-07-29T02:57:46;17.20;99.90
27226;DHT22;14732;51.074;3.788;2022-07-29T03:00:13;17.30;99.90
27226;DHT22;14732;51.074;3.788;2022-07-29T03:02:43;17.50;99.90
27226;DHT22;14732;51.074;3.788;2022-07-29T03:05:14;17.50;99.90
27226;DHT22;14732;51.074;3.788;2022-07-29T03:07:42;17.40;99.90
27226;DHT22;14732;51.074;3.788;2022-07-29T03:10:08;17.20;99.90
27226;DHT22;14732;51.074;3.788;2022-07-29T03:12:35;17.30;99.90
27226;DHT22;14732;51.074;3.788;2022-07-29T03:15:01;17.40;99.90
27226;DHT22;14732;51.074;3.788;2022-07-29T03:17:27;17.50;99.90
27226;DHT22;14732;51.074;3.788;2022-07-29T03:19:54;17.40;99.90
27226;DHT22;14732;51.074;3.788;2022-07-29T03:22:20;17.30;99.90
27226;DHT22;14732;51.074;3.788;2022-07-29T03:24:46;17.30;99.90
27226;DHT22;14732;51.074;3.788;2022-07-29T03:27:12;17.20;99.90
27226;DHT22;14732;51.074;3.788;2022-07-29T03:29:38;17.20;99.90
27226;DHT22;14732;51.074;3.788;2022-07-29T03:32:05;17.20;99.90
27226;DHT22;14732;51.074;3.788;2022-07-29T03:34:31;17.30;99.90
27226;DHT22;14732;51.074;3.788;2022-07-29T03:36:56;17.20;99.90
27226;DHT22;14732;51.074;3.788;2022-07-29T03:39:25;17.10;99.90
27226;DHT22;14732;51.074;3.788;2022-07-29T03:41:55;17.10;99.90
27226;DHT22;14732;51.074;3.788;2022-07-29T03:44:23;17.10;99.90
27226;DHT22;14732;51.074;3.788;2022-07-29T03:46:52;17.10;99.90
27226;DHT22;14732;51.074;3.788;2022-07-29T03:49:20;17.10;99.90
27226;DHT22;14732;51.074;3.788;2022-07-29T03:51:47;17.00;99.90
27226;DHT22;14732;51.074;3.788;2022-07-29T03:54:13;17.00;99.90
27226;DHT22;14732;51.074;3.788;2022-07-29T03:56:42;17.00;99.90
27226;DHT22;14732;51.074;3.788;2022-07-29T03:59:08;17.00;99.90
27226;DHT22;14732;51.074;3.788;2022-07-29T04:01:35;16.90;99.90
27226;DHT22;14732;51.074;3.788;2022-07-29T04:04:01;16.90;99.90
27226;DHT22;14732;51.074;3.788;2022-07-29T04:06:27;16.80;99.90
27226;DHT22;14732;51.074;3.788;2022-07-29T04:08:53;16.80;99.90
27226;DHT22;14732;51.074;3.788;2022-07-29T04:11:19;16.80;99.90
27226;DHT22;14732;51.074;3.788;2022-07-29T04:13:44;16.80;99.90
27226;DHT22;14732;51.074;3.788;2022-07-29T04:16:10;16.80;99.90
27226;DHT22;14732;51.074;3.788;2022-07-29T04:18:35;16.70;99.90
27226;DHT22;14732;51.074;3.788;2022-07-29T04:21:01;16.80;99.90
27226;DHT22;14732;51.074;3.788;2022-07-29T04:23:32;16.80;99.90
27226;DHT22;14732;51.074;3.788;2022-07-29T04:25:58;16.80;99.90
27226;DHT22;14732;51.074;3.788;2022-07-29T04:28:25;16.70;99.90
27226;DHT22;14732;51.074;3.788;2022-07-29T04:30:51;16.70;99.90
27226;DHT22;14732;51.074;3.788;2022-07-29T04:33:16;16.70;99.90
27226;DHT22;14732;51.074;3.788;2022-07-29T04:35:42;16.70;99.90
27226;DHT22;14732;51.074;3.788;2022-07-29T04:38:08;16.70;99.90
27226;DHT22;14732;51.074;3.788;2022-07-29T04:40:34;16.70;99.90
27226;DHT22;14732;51.074;3.788;2022-07-29T04:43:00;16.70;99.90
27226;DHT22;14732;51.074;3.788;2022-07-29T04:45:26;16.80;99.90
27226;DHT22;14732;51.074;3.788;2022-07-29T04:47:52;16.80;99.90
27226;DHT22;14732;51.074;3.788;2022-07-29T04:50:18;16.80;99.90
27226;DHT22;14732;51.074;3.788;2022-07-29T04:52:43;16.80;99.90
27226;DHT22;14732;51.074;3.788;2022-07-29T04:55:09;16.90;99.90
27226;DHT22;14732;51.074;3.788;2022-07-29T04:57:35;16.90;99.90
27226;DHT22;14732;51.074;3.788;2022-07-29T05:00:01;16.90;99.90
27226;DHT22;14732;51.074;3.788;2022-07-29T05:02:27;17.00;99.90
27226;DHT22;14732;51.074;3.788;2022-07-29T05:04:52;17.00;99.90
27226;DHT22;14732;51.074;3.788;2022-07-29T05:07:18;17.00;99.90
27226;DHT22;14732;51.074;3.788;2022-07-29T05:09:44;17.20;99.90
27226;DHT22;14732;51.074;3.788;2022-07-29T05:12:09;17.30;99.90
27226;DHT22;14732;51.074;3.788;2022-07-29T05:14:35;17.40;99.90
27226;DHT22;14732;51.074;3.788;2022-07-29T05:17:01;17.50;99.90
27226;DHT22;14732;51.074;3.788;2022-07-29T05:19:26;17.60;99.90
27226;DHT22;14732;51.074;3.788;2022-07-29T05:21:52;17.70;99.90
27226;DHT22;14732;51.074;3.788;2022-07-29T05:24:17;17.80;99.90
27226;DHT22;14732;51.074;3.788;2022-07-29T05:26:43;17.80;99.90
27226;DHT22;14732;51.074;3.788;2022-07-29T05:29:09;17.90;99.90
27226;DHT22;14732;51.074;3.788;2022-07-29T05:31:34;17.90;99.90
27226;DHT22;14732;51.074;3.788;2022-07-29T05:34:00;17.70;99.90
27226;DHT22;14732;51.074;3.788;2022-07-29T05:36:26;18.00;99.90
27226;DHT22;14732;51.074;3.788;2022-07-29T05:38:52;19.00;99.90
27226;DHT22;14732;51.074;3.788;2022-07-29T05:41:18;20.30;99.90
27226;DHT22;14732;51.074;3.788;2022-07-29T05:43:44;21.40;99.90
27226;DHT22;14732;51.074;3.788;2022-07-29T05:46:10;22.50;99.90
27226;DHT22;14732;51.074;3.788;2022-07-29T05:48:35;23.40;99.90
27226;DHT22;14732;51.074;3.788;2022-07-29T05:51:01;24.10;99.90
27226;DHT22;14732;51.074;3.788;2022-07-29T05:53:27;24.50;99.90
27226;DHT22;14732;51.074;3.788;2022-07-29T05:55:53;25.20;99.90
27226;DHT22;14732;51.074;3.788;2022-07-29T05:58:19;25.60;99.90
27226;DHT22;14732;51.074;3.788;2022-07-29T06:00:45;26.00;99.90
27226;DHT22;14732;51.074;3.788;2022-07-29T06:03:11;26.40;99.90
27226;DHT22;14732;51.074;3.788;2022-07-29T06:05:36;26.40;99.90
27226;DHT22;14732;51.074;3.788;2022-07-29T06:08:03;26.50;99.90
27226;DHT22;14732;51.074;3.788;2022-07-29T06:10:31;26.90;99.90
27226;DHT22;14732;51.074;3.788;2022-07-29T06:12:56;26.60;99.90
27226;DHT22;14732;51.074;3.788;2022-07-29T06:15:22;27.20;99.90
27226;DHT22;14732;51.074;3.788;2022-07-29T06:17:47;27.30;99.90
27226;DHT22;14732;51.074;3.788;2022-07-29T06:20:13;27.70;99.90
27226;DHT22;14732;51.074;3.788;2022-07-29T06:22:39;27.90;99.90
27226;DHT22;14732;51.074;3.788;2022-07-29T06:25:05;28.30;99.90
27226;DHT22;14732;51.074;3.788;2022-07-29T06:27:31;27.70;99.90
27226;DHT22;14732;51.074;3.788;2022-07-29T06:29:57;27.20;99.90
27226;DHT22;14732;51.074;3.788;2022-07-29T06:32:22;26.50;99.90
27226;DHT22;14732;51.074;3.788;2022-07-29T06:34:48;26.00;99.90
27226;DHT22;14732;51.074;3.788;2022-07-29T06:37:14;25.40;99.90
27226;DHT22;14732;51.074;3.788;2022-07-29T06:39:39;24.60;99.90
27226;DHT22;14732;51.074;3.788;2022-07-29T06:42:06;24.10;99.90
27226;DHT22;14732;51.074;3.788;2022-07-29T06:44:32;23.70;99.90
27226;DHT22;14732;51.074;3.788;2022-07-29T06:47:01;23.40;99.90
27226;DHT22;14732;51.074;3.788;2022-07-29T06:49:27;23.00;99.90
27226;DHT22;14732;51.074;3.788;2022-07-29T06:51:53;22.70;99.90
27226;DHT22;14732;51.074;3.788;2022-07-29T06:54:19;22.50;99.90
27226;DHT22;14732;51.074;3.788;2022-07-29T06:56:45;22.20;99.90
27226;DHT22;14732;51.074;3.788;2022-07-29T06:59:12;22.20;99.90
27226;DHT22;14732;51.074;3.788;2022-07-29T07:01:42;22.30;99.90
27226;DHT22;14732;51.074;3.788;2022-07-29T07:04:09;22.40;99.90
27226;DHT22;14732;51.074;3.788;2022-07-29T07:06:35;22.50;99.90
27226;DHT22;14732;51.074;3.788;2022-07-29T07:09:01;22.60;99.90
27226;DHT22;14732;51.074;3.788;2022-07-29T07:11:27;22.40;99.90
27226;DHT22;14732;51.074;3.788;2022-07-29T07:13:53;22.20;99.90
27226;DHT22;14732;51.074;3.788;2022-07-29T07:16:19;22.10;99.90
27226;DHT22;14732;51.074;3.788;2022-07-29T07:18:44;21.60;99.90
27226;DHT22;14732;51.074;3.788;2022-07-29T07:21:11;21.80;99.90
27226;DHT22;14732;51.074;3.788;2022-07-29T07:23:37;22.10;99.90
27226;DHT22;14732;51.074;3.788;2022-07-29T07:26:02;22.10;99.90
27226;DHT22;14732;51.074;3.788;2022-07-29T07:28:30;22.00;99.90
27226;DHT22;14732;51.074;3.788;2022-07-29T07:30:56;22.10;99.90
27226;DHT22;14732;51.074;3.788;2022-07-29T07:33:21;22.20;99.90
27226;DHT22;14732;51.074;3.788;2022-07-29T07:35:47;22.50;99.90
27226;DHT22;14732;51.074;3.788;2022-07-29T07:38:13;22.70;99.90
27226;DHT22;14732;51.074;3.788;2022-07-29T07:40:39;22.90;99.90
27226;DHT22;14732;51.074;3.788;2022-07-29T07:43:04;23.10;99.90
27226;DHT22;14732;51.074;3.788;2022-07-29T07:45:30;22.70;99.90
27226;DHT22;14732;51.074;3.788;2022-07-29T07:47:58;22.60;99.90
27226;DHT22;14732;51.074;3.788;2022-07-29T07:50:24;22.70;99.90
27226;DHT22;14732;51.074;3.788;2022-07-29T07:52:54;22.80;99.90
27226;DHT22;14732;51.074;3.788;2022-07-29T07:55:23;22.80;99.90
27226;DHT22;14732;51.074;3.788;2022-07-29T07:57:48;23.10;99.90
27226;DHT22;14732;51.074;3.788;2022-07-29T08:00:15;23.40;99.90
27226;DHT22;14732;51.074;3.788;2022-07-29T08:02:41;23.40;99.90
27226;DHT22;14732;51.074;3.788;2022-07-29T08:05:08;23.50;99.90
27226;DHT22;14732;51.074;3.788;2022-07-29T08:07:34;23.80;99.90
27226;DHT22;14732;51.074;3.788;2022-07-29T08:10:00;24.00;99.90
27226;DHT22;14732;51.074;3.788;2022-07-29T08:12:25;23.70;99.90
27226;DHT22;14732;51.074;3.788;2022-07-29T08:14:51;23.50;99.90
27226;DHT22;14732;51.074;3.788;2022-07-29T08:17:16;23.40;99.90
27226;DHT22;14732;51.074;3.788;2022-07-29T08:19:42;23.70;99.90
27226;DHT22;14732;51.074;3.788;2022-07-29T08:22:08;23.90;99.90
27226;DHT22;14732;51.074;3.788;2022-07-29T08:24:33;24.00;99.90
27226;DHT22;14732;51.074;3.788;2022-07-29T08:27:09;23.80;99.90
27226;DHT22;14732;51.074;3.788;2022-07-29T08:29:35;23.80;99.90
27226;DHT22;14732;51.074;3.788;2022-07-29T08:32:01;24.10;99.90
27226;DHT22;14732;51.074;3.788;2022-07-29T08:34:27;24.20;99.90
27226;DHT22;14732;51.074;3.788;2022-07-29T08:36:54;24.10;99.90
27226;DHT22;14732;51.074;3.788;2022-07-29T08:39:20;24.20;99.90
27226;DHT22;14732;51.074;3.788;2022-07-29T08:41:46;24.30;99.90
27226;DHT22;14732;51.074;3.788;2022-07-29T08:44:15;24.30;99.90
27226;DHT22;14732;51.074;3.788;2022-07-29T08:46:40;24.40;99.90
27226;DHT22;14732;51.074;3.788;2022-07-29T08:49:07;24.50;99.90
27226;DHT22;14732;51.074;3.788;2022-07-29T08:51:33;24.90;99.90
27226;DHT22;14732;51.074;3.788;2022-07-29T08:54:01;25.40;99.90
27226;DHT22;14732;51.074;3.788;2022-07-29T08:56:27;25.70;99.90
27226;DHT22;14732;51.074;3.788;2022-07-29T08:58:54;25.80;99.90
27226;DHT22;14732;51.074;3.788;2022-07-29T09:01:25;27.00;99.90
27226;DHT22;14732;51.074;3.788;2022-07-29T09:03:55;29.10;99.90
27226;DHT22;14732;51.074;3.788;2022-07-29T09:06:22;31.00;98.80
27226;DHT22;14732;51.074;3.788;2022-07-29T09:08:51;32.00;94.50
27226;DHT22;14732;51.074;3.788;2022-07-29T09:11:17;33.30;92.50
27226;DHT22;14732;51.074;3.788;2022-07-29T09:13:42;34.50;90.40
27226;DHT22;14732;51.074;3.788;2022-07-29T09:16:08;35.40;84.10
27226;DHT22;14732;51.074;3.788;2022-07-29T09:18:34;35.90;82.40
27226;DHT22;14732;51.074;3.788;2022-07-29T09:21:02;35.20;79.40
27226;DHT22;14732;51.074;3.788;2022-07-29T09:24:07;35.90;79.90
27226;DHT22;14732;51.074;3.788;2022-07-29T09:26:39;37.10;78.00
27226;DHT22;14732;51.074;3.788;2022-07-29T09:29:23;37.70;73.30
27226;DHT22;14732;51.074;3.788;2022-07-29T09:31:52;37.50;71.70
27226;DHT22;14732;51.074;3.788;2022-07-29T09:34:36;37.50;70.90
27226;DHT22;14732;51.074;3.788;2022-07-29T09:37:02;36.90;69.30
27226;DHT22;14732;51.074;3.788;2022-07-29T09:39:38;35.20;69.70
27226;DHT22;14732;51.074;3.788;2022-07-29T09:42:11;33.70;74.10
27226;DHT22;14732;51.074;3.788;2022-07-29T09:44:50;33.10;75.50
27226;DHT22;14732;51.074;3.788;2022-07-29T09:47:17;32.40;75.60
27226;DHT22;14732;51.074;3.788;2022-07-29T09:49:59;31.90;76.90
27226;DHT22;14732;51.074;3.788;2022-07-29T09:52:29;31.20;78.60
27226;DHT22;14732;51.074;3.788;2022-07-29T09:55:09;30.60;77.80
27226;DHT22;14732;51.074;3.788;2022-07-29T09:57:35;29.90;81.40
27226;DHT22;14732;51.074;3.788;2022-07-29T10:00:06;29.50;83.50
27226;DHT22;14732;51.074;3.788;2022-07-29T10:02:35;29.00;84.30
27226;DHT22;14732;51.074;3.788;2022-07-29T10:05:03;28.70;86.10
27226;DHT22;14732;51.074;3.788;2022-07-29T10:10:28;28.60;84.20
27226;DHT22;14732;51.074;3.788;2022-07-29T10:15:22;27.90;86.30
27226;DHT22;14732;51.074;3.788;2022-07-29T10:17:50;28.00;86.90
27226;DHT22;14732;51.074;3.788;2022-07-29T10:20:16;28.00;88.60
27226;DHT22;14732;51.074;3.788;2022-07-29T10:22:42;28.10;89.80
27226;DHT22;14732;51.074;3.788;2022-07-29T10:25:10;28.20;87.30
27226;DHT22;14732;51.074;3.788;2022-07-29T10:27:36;28.00;85.10
27226;DHT22;14732;51.074;3.788;2022-07-29T10:30:03;27.40;88.10
27226;DHT22;14732;51.074;3.788;2022-07-29T10:32:39;27.10;87.30
27226;DHT22;14732;51.074;3.788;2022-07-29T10:38:04;27.40;87.50
27226;DHT22;14732;51.074;3.788;2022-07-29T10:43:43;27.30;88.20
27226;DHT22;14732;51.074;3.788;2022-07-29T10:46:10;27.40;88.30
27226;DHT22;14732;51.074;3.788;2022-07-29T10:49:15;27.10;87.60
27226;DHT22;14732;51.074;3.788;2022-07-29T10:54:35;26.90;88.50
27226;DHT22;14732;51.074;3.788;2022-07-29T10:57:11;27.10;88.50
27226;DHT22;14732;51.074;3.788;2022-07-29T10:59:38;27.60;86.60
27226;DHT22;14732;51.074;3.788;2022-07-29T11:07:25;28.30;84.80
27226;DHT22;14732;51.074;3.788;2022-07-29T11:15:10;27.90;85.20
27226;DHT22;14732;51.074;3.788;2022-07-29T11:23:45;27.80;84.00
27226;DHT22;14732;51.074;3.788;2022-07-29T11:31:20;27.40;83.80
27226;DHT22;14732;51.074;3.788;2022-07-29T11:33:56;27.00;83.80
27226;DHT22;14732;51.074;3.788;2022-07-29T11:36:22;27.20;82.30
27226;DHT22;14732;51.074;3.788;2022-07-29T11:38:48;27.50;80.60
27226;DHT22;14732;51.074;3.788;2022-07-29T11:41:27;27.40;81.30
27226;DHT22;14732;51.074;3.788;2022-07-29T11:43:56;27.90;79.60
27226;DHT22;14732;51.074;3.788;2022-07-29T11:46:48;28.00;78.10
27226;DHT22;14732;51.074;3.788;2022-07-29T11:49:25;28.20;80.40
27226;DHT22;14732;51.074;3.788;2022-07-29T11:51:56;28.10;80.70
27226;DHT22;14732;51.074;3.788;2022-07-29T11:54:27;28.50;80.20
27226;DHT22;14732;51.074;3.788;2022-07-29T11:56:57;28.70;82.00
27226;DHT22;14732;51.074;3.788;2022-07-29T11:59:24;28.80;79.60
27226;DHT22;14732;51.074;3.788;2022-07-29T12:01:54;28.80;79.70
27226;DHT22;14732;51.074;3.788;2022-07-29T12:04:20;28.80;81.30
27226;DHT22;14732;51.074;3.788;2022-07-29T12:06:53;28.20;82.10
27226;DHT22;14732;51.074;3.788;2022-07-29T12:09:20;28.20;82.10
27226;DHT22;14732;51.074;3.788;2022-07-29T12:11:47;28.60;81.10
27226;DHT22;14732;51.074;3.788;2022-07-29T12:14:29;29.00;79.40
27226;DHT22;14732;51.074;3.788;2022-07-29T12:16:56;29.20;78.30
27226;DHT22;14732;51.074;3.788;2022-07-29T12:19:21;29.10;81.10
27226;DHT22;14732;51.074;3.788;2022-07-29T12:21:49;29.30;79.70
27226;DHT22;14732;51.074;3.788;2022-07-29T12:24:15;29.30;79.90
27226;DHT22;14732;51.074;3.788;2022-07-29T12:26:58;29.70;78.90
27226;DHT22;14732;51.074;3.788;2022-07-29T12:29:25;30.00;79.50
27226;DHT22;14732;51.074;3.788;2022-07-29T12:31:54;29.90;79.00
27226;DHT22;14732;51.074;3.788;2022-07-29T12:34:22;29.90;78.60
27226;DHT22;14732;51.074;3.788;2022-07-29T12:36:48;30.30;80.00
27226;DHT22;14732;51.074;3.788;2022-07-29T12:39:16;29.60;79.70
27226;DHT22;14732;51.074;3.788;2022-07-29T12:41:43;29.60;77.80
27226;DHT22;14732;51.074;3.788;2022-07-29T12:44:09;29.40;79.50
27226;DHT22;14732;51.074;3.788;2022-07-29T12:46:35;29.60;78.30
27226;DHT22;14732;51.074;3.788;2022-07-29T12:49:00;29.90;77.70
27226;DHT22;14732;51.074;3.788;2022-07-29T12:54:09;29.50;77.10
27226;DHT22;14732;51.074;3.788;2022-07-29T12:56:37;29.90;76.20
27226;DHT22;14732;51.074;3.788;2022-07-29T12:59:18;29.80;80.60
27226;DHT22;14732;51.074;3.788;2022-07-29T13:01:45;29.40;79.50
27226;DHT22;14732;51.074;3.788;2022-07-29T13:04:28;28.80;80.20
27226;DHT22;14732;51.074;3.788;2022-07-29T13:07:04;28.20;82.80
27226;DHT22;14732;51.074;3.788;2022-07-29T13:09:44;28.20;82.60
27226;DHT22;14732;51.074;3.788;2022-07-29T13:12:11;27.90;82.80
27226;DHT22;14732;51.074;3.788;2022-07-29T13:14:42;28.10;83.20
27226;DHT22;14732;51.074;3.788;2022-07-29T13:17:09;28.50;80.50
27226;DHT22;14732;51.074;3.788;2022-07-29T13:20:05;28.70;80.80
27226;DHT22;14732;51.074;3.788;2022-07-29T13:22:31;28.80;80.90
27226;DHT22;14732;51.074;3.788;2022-07-29T13:24:59;28.80;82.40
27226;DHT22;14732;51.074;3.788;2022-07-29T13:27:29;28.70;82.60
27226;DHT22;14732;51.074;3.788;2022-07-29T13:29:56;28.50;83.30
27226;DHT22;14732;51.074;3.788;2022-07-29T13:32:24;28.50;84.80
27226;DHT22;14732;51.074;3.788;2022-07-29T13:34:51;28.50;83.70
27226;DHT22;14732;51.074;3.788;2022-07-29T13:37:17;28.90;82.20
27226;DHT22;14732;51.074;3.788;2022-07-29T13:39:43;29.00;82.00
27226;DHT22;14732;51.074;3.788;2022-07-29T13:42:09;28.70;80.70
27226;DHT22;14732;51.074;3.788;2022-07-29T13:44:35;28.40;83.60
27226;DHT22;14732;51.074;3.788;2022-07-29T13:47:01;28.30;84.00
27226;DHT22;14732;51.074;3.788;2022-07-29T13:49:27;28.30;82.50
27226;DHT22;14732;51.074;3.788;2022-07-29T13:51:53;28.70;81.60
27226;DHT22;14732;51.074;3.788;2022-07-29T13:54:19;28.60;81.00
27226;DHT22;14732;51.074;3.788;2022-07-29T13:56:45;28.40;82.10
27226;DHT22;14732;51.074;3.788;2022-07-29T13:59:11;28.20;82.00
27226;DHT22;14732;51.074;3.788;2022-07-29T14:01:37;27.90;82.20
27226;DHT22;14732;51.074;3.788;2022-07-29T14:04:04;27.90;84.60
27226;DHT22;14732;51.074;3.788;2022-07-29T14:06:29;27.90;82.70
27226;DHT22;14732;51.074;3.788;2022-07-29T14:08:55;28.10;81.20
27226;DHT22;14732;51.074;3.788;2022-07-29T14:11:22;27.90;82.50
27226;DHT22;14732;51.074;3.788;2022-07-29T14:13:47;27.80;83.20
27226;DHT22;14732;51.074;3.788;2022-07-29T14:16:13;27.80;83.00
27226;DHT22;14732;51.074;3.788;2022-07-29T14:18:39;27.90;81.70
27226;DHT22;14732;51.074;3.788;2022-07-29T14:21:04;28.40;81.40
27226;DHT22;14732;51.074;3.788;2022-07-29T14:23:30;28.40;79.40
27226;DHT22;14732;51.074;3.788;2022-07-29T14:25:56;28.50;80.90
27226;DHT22;14732;51.074;3.788;2022-07-29T14:28:22;28.20;83.40
27226;DHT22;14732;51.074;3.788;2022-07-29T14:30:48;28.30;83.40
27226;DHT22;14732;51.074;3.788;2022-07-29T14:33:14;28.10;83.00
27226;DHT22;14732;51.074;3.788;2022-07-29T14:35:40;28.30;82.00
27226;DHT22;14732;51.074;3.788;2022-07-29T14:38:06;28.00;83.80
27226;DHT22;14732;51.074;3.788;2022-07-29T14:40:31;28.10;82.70
27226;DHT22;14732;51.074;3.788;2022-07-29T14:42:57;28.30;82.10
27226;DHT22;14732;51.074;3.788;2022-07-29T14:45:23;27.80;82.70
27226;DHT22;14732;51.074;3.788;2022-07-29T14:47:49;27.50;83.30
27226;DHT22;14732;51.074;3.788;2022-07-29T14:50:16;27.40;84.60
27226;DHT22;14732;51.074;3.788;2022-07-29T14:52:42;27.30;84.60
27226;DHT22;14732;51.074;3.788;2022-07-29T14:55:08;27.20;86.80
27226;DHT22;14732;51.074;3.788;2022-07-29T14:57:34;27.60;83.60
27226;DHT22;14732;51.074;3.788;2022-07-29T15:00:00;27.60;83.60
27226;DHT22;14732;51.074;3.788;2022-07-29T15:02:26;27.60;84.50
27226;DHT22;14732;51.074;3.788;2022-07-29T15:04:51;27.70;83.60
27226;DHT22;14732;51.074;3.788;2022-07-29T15:07:17;27.80;84.10
27226;DHT22;14732;51.074;3.788;2022-07-29T15:09:43;27.60;83.80
27226;DHT22;14732;51.074;3.788;2022-07-29T15:12:10;27.50;84.90
27226;DHT22;14732;51.074;3.788;2022-07-29T15:14:36;27.60;83.60
27226;DHT22;14732;51.074;3.788;2022-07-29T15:17:02;27.30;84.40
27226;DHT22;14732;51.074;3.788;2022-07-29T15:19:27;27.40;86.20
27226;DHT22;14732;51.074;3.788;2022-07-29T15:21:53;27.50;86.60
27226;DHT22;14732;51.074;3.788;2022-07-29T15:24:19;27.80;85.10
27226;DHT22;14732;51.074;3.788;2022-07-29T15:26:45;27.90;84.40
27226;DHT22;14732;51.074;3.788;2022-07-29T15:29:11;28.00;84.00
27226;DHT22;14732;51.074;3.788;2022-07-29T15:31:37;28.10;84.10
27226;DHT22;14732;51.074;3.788;2022-07-29T15:34:03;28.30;84.60
27226;DHT22;14732;51.074;3.788;2022-07-29T15:36:29;28.10;84.30
27226;DHT22;14732;51.074;3.788;2022-07-29T15:38:55;27.70;84.90
27226;DHT22;14732;51.074;3.788;2022-07-29T15:41:21;27.70;84.90
27226;DHT22;14732;51.074;3.788;2022-07-29T15:43:47;27.30;86.20
27226;DHT22;14732;51.074;3.788;2022-07-29T15:46:15;27.20;86.10
27226;DHT22;14732;51.074;3.788;2022-07-29T15:49:00;27.10;86.80
27226;DHT22;14732;51.074;3.788;2022-07-29T15:51:26;26.90;86.30
27226;DHT22;14732;51.074;3.788;2022-07-29T15:53:52;26.90;86.80
27226;DHT22;14732;51.074;3.788;2022-07-29T15:56:17;27.00;85.90
27226;DHT22;14732;51.074;3.788;2022-07-29T15:58:43;26.80;85.80
27226;DHT22;14732;51.074;3.788;2022-07-29T16:01:09;26.70;86.80
27226;DHT22;14732;51.074;3.788;2022-07-29T16:03:35;26.50;87.00
27226;DHT22;14732;51.074;3.788;2022-07-29T16:06:01;26.40;86.90
27226;DHT22;14732;51.074;3.788;2022-07-29T16:08:26;26.20;87.10
27226;DHT22;14732;51.074;3.788;2022-07-29T16:10:52;26.10;87.90
27226;DHT22;14732;51.074;3.788;2022-07-29T16:13:18;26.10;87.60
27226;DHT22;14732;51.074;3.788;2022-07-29T16:15:43;26.20;88.30
27226;DHT22;14732;51.074;3.788;2022-07-29T16:18:09;26.10;87.80
27226;DHT22;14732;51.074;3.788;2022-07-29T16:20:38;26.00;88.50